createdAt,value
2022-10-05T00:01:50.206Z,10.71
2022-10-05T00:08:10.190Z,10.65
2022-10-05T00:14:33.283Z,10.57
2022-10-05T00:20:53.174Z,10.53
2022-10-05T00:27:16.289Z,10.49
2022-10-05T00:33:36.216Z,10.43
2022-10-05T00:39:59.176Z,10.36
2022-10-05T00:46:19.258Z,10.31
2022-10-05T00:52:42.217Z,10.23
2022-10-05T00:59:02.224Z,10.2
2022-10-05T01:05:25.152Z,10.18
2022-10-05T01:11:45.261Z,10.16
2022-10-05T01:18:08.203Z,10.19
2022-10-05T01:24:28.256Z,10.23
2022-10-05T01:30:51.215Z,10.24
2022-10-05T01:37:11.244Z,10.21
2022-10-05T01:43:34.206Z,10.2
2022-10-05T01:49:54.218Z,10.17
2022-10-05T01:56:17.207Z,10.12
2022-10-05T02:02:37.326Z,10.04
2022-10-05T02:09:00.247Z,9.92
2022-10-05T02:15:20.153Z,9.82
2022-10-05T02:21:43.161Z,9.71
2022-10-05T02:28:03.289Z,9.64
2022-10-05T02:34:26.263Z,9.61
2022-10-05T02:40:46.166Z,9.56
2022-10-05T02:47:09.244Z,9.56
2022-10-05T02:53:29.220Z,9.53
2022-10-05T02:59:52.244Z,9.5
2022-10-05T03:06:12.212Z,9.49
2022-10-05T03:22:05.075Z,9.47
2022-10-05T03:28:25.204Z,9.44
2022-10-05T03:34:48.193Z,9.4
2022-10-05T03:41:08.200Z,9.41
2022-10-05T03:47:31.214Z,9.41
2022-10-05T03:53:51.208Z,9.38
2022-10-05T04:00:14.264Z,9.38
2022-10-05T04:06:34.217Z,9.42
2022-10-05T04:12:57.202Z,9.42
2022-10-05T04:19:17.178Z,9.43
2022-10-05T04:25:40.209Z,9.43
2022-10-05T04:32:00.165Z,9.46
2022-10-05T04:38:23.229Z,9.5
2022-10-05T04:44:43.264Z,9.56
2022-10-05T04:51:06.213Z,9.59
2022-10-05T04:57:26.255Z,9.66
2022-10-05T05:03:49.236Z,9.72
2022-10-05T05:10:09.210Z,9.77
2022-10-05T05:16:32.393Z,9.79
2022-10-05T05:22:52.212Z,9.8
2022-10-05T05:29:15.226Z,9.8
2022-10-05T05:35:35.175Z,9.81
2022-10-05T05:41:58.202Z,9.86
2022-10-05T05:48:18.183Z,9.91
2022-10-05T05:54:41.233Z,10.01
2022-10-05T06:01:01.221Z,10.11
2022-10-05T06:07:28.124Z,10.21
2022-10-05T06:13:44.228Z,10.32
2022-10-05T06:20:07.183Z,10.43
2022-10-05T06:26:27.216Z,10.53
2022-10-05T06:32:50.258Z,10.63
2022-10-05T06:39:10.246Z,10.74
2022-10-05T06:45:33.279Z,10.86
2022-10-05T06:51:53.322Z,11.02
2022-10-05T06:58:16.188Z,11.16
2022-10-05T07:04:37.152Z,11.32
2022-10-05T07:10:59.239Z,11.5
2022-10-05T07:17:19.193Z,11.7
2022-10-05T07:23:42.207Z,11.89
2022-10-05T07:30:02.247Z,12.05
2022-10-05T07:36:25.253Z,12.18
2022-10-05T07:42:50.861Z,12.34
2022-10-05T07:49:08.272Z,12.56
2022-10-05T07:55:28.165Z,12.8
2022-10-05T08:01:51.332Z,13.05
2022-10-05T08:08:12.293Z,13.3
2022-10-05T08:14:34.231Z,13.52
2022-10-05T08:37:37.178Z,14.26
2022-10-05T08:44:00.148Z,14.5
2022-10-05T08:50:20.218Z,14.67
2022-10-05T08:56:43.216Z,14.78
2022-10-05T09:03:03.252Z,14.88
2022-10-05T09:09:26.245Z,15.08
2022-10-05T09:15:46.256Z,15.29
2022-10-05T09:22:09.174Z,15.47
2022-10-05T09:28:29.218Z,15.66
2022-10-05T09:34:52.201Z,15.9
2022-10-05T09:41:12.189Z,16.1
2022-10-05T09:47:35.174Z,16.3
2022-10-05T09:53:55.217Z,16.59
2022-10-05T10:00:18.240Z,16.95
2022-10-05T10:06:38.221Z,17.34
2022-10-05T10:13:01.275Z,17.83
2022-10-05T10:19:21.175Z,18.43
2022-10-05T10:25:44.218Z,18.84
2022-10-05T10:32:04.208Z,18.98
2022-10-05T10:38:27.179Z,19.17
2022-10-05T10:44:47.159Z,19.56
2022-10-05T10:51:10.208Z,19.87
2022-10-05T10:57:30.180Z,20.01
2022-10-05T11:03:53.182Z,20.21
2022-10-05T11:10:13.207Z,20.49
2022-10-05T11:16:36.204Z,20.62
2022-10-05T11:22:56.170Z,20.67
2022-10-05T11:29:19.220Z,20.77
2022-10-05T11:35:39.165Z,21.01
2022-10-05T11:42:02.176Z,21.21
2022-10-05T11:48:22.175Z,21.51
2022-10-05T11:55:06.262Z,21.6
2022-10-05T12:01:05.504Z,21.67
2022-10-05T12:07:29.303Z,21.61
2022-10-05T12:13:49.190Z,21.68
2022-10-05T12:20:12.250Z,21.8
2022-10-05T12:26:32.197Z,21.69
2022-10-05T12:32:59.498Z,21.9
2022-10-05T12:39:15.151Z,21.88
2022-10-05T12:45:38.421Z,22.02
2022-10-05T12:51:58.235Z,22.03
2022-10-05T12:58:21.172Z,22.06
2022-10-05T13:04:41.182Z,22
2022-10-05T13:11:04.148Z,21.69
2022-10-05T13:17:24.445Z,21.53
2022-10-05T13:23:47.203Z,21.51
2022-10-05T13:30:07.200Z,21.34
2022-10-05T13:45:59.755Z,21.14
2022-10-05T13:52:19.197Z,21.1
2022-10-05T13:58:42.813Z,21.05
2022-10-05T14:05:03.196Z,21.01
2022-10-05T14:11:26.209Z,21
2022-10-05T14:17:46.151Z,20.98
2022-10-05T14:24:15.259Z,20.94
2022-10-05T14:30:30.173Z,20.84
2022-10-05T14:36:53.171Z,20.78
2022-10-05T14:43:13.334Z,20.7
2022-10-05T14:49:36.156Z,20.7
2022-10-05T14:55:56.142Z,20.7
2022-10-05T15:02:19.234Z,20.67
2022-10-05T15:08:39.171Z,20.61
2022-10-05T15:15:02.246Z,20.56
2022-10-05T15:21:22.200Z,20.52
2022-10-05T15:27:45.211Z,20.47
2022-10-05T15:34:05.187Z,20.4
2022-10-05T15:40:28.217Z,20.33
2022-10-05T15:46:48.407Z,20.24
2022-10-05T15:53:11.485Z,20.17
2022-10-05T15:59:31.186Z,20.06
2022-10-05T16:05:54.238Z,19.97
2022-10-05T16:12:14.175Z,19.91
2022-10-05T16:18:37.172Z,19.83
2022-10-05T16:24:57.151Z,19.71
2022-10-05T16:31:20.167Z,19.58
2022-10-05T16:37:40.171Z,19.44
2022-10-05T16:44:03.377Z,19.27
2022-10-05T16:50:23.171Z,19.11
2022-10-05T16:56:46.203Z,18.96
2022-10-05T17:03:06.154Z,18.87
2022-10-05T17:09:29.207Z,18.79
2022-10-05T17:15:49.257Z,18.73
2022-10-05T17:22:12.225Z,18.67
2022-10-05T17:28:32.292Z,18.59
2022-10-05T17:34:55.247Z,18.46
2022-10-05T17:41:15.195Z,18.44
2022-10-05T17:47:38.176Z,18.45
2022-10-05T17:53:58.235Z,18.5
2022-10-05T18:00:21.256Z,18.52
2022-10-05T18:06:41.167Z,18.51
2022-10-05T18:13:04.392Z,18.48
2022-10-05T18:19:24.161Z,18.52
2022-10-05T18:25:47.187Z,18.62
2022-10-05T18:49:11.103Z,18.79
2022-10-05T18:55:31.161Z,18.97
2022-10-05T19:01:54.261Z,18.99
2022-10-05T19:08:14.195Z,18.93
2022-10-05T19:14:37.168Z,18.84
2022-10-05T19:20:57.160Z,18.69
2022-10-05T19:27:20.167Z,18.47
2022-10-05T19:33:40.187Z,18.2
2022-10-05T19:40:04.456Z,17.96
2022-10-05T19:46:23.252Z,17.81
2022-10-05T19:52:49.936Z,17.73
2022-10-05T19:59:06.231Z,17.72
2022-10-05T20:05:29.325Z,17.78
2022-10-05T20:11:49.192Z,17.83
2022-10-05T20:18:12.151Z,17.84
2022-10-05T20:24:32.215Z,17.78
2022-10-05T20:30:55.207Z,17.67
2022-10-05T20:37:15.189Z,17.53
2022-10-05T20:43:38.187Z,17.45
2022-10-05T20:49:58.178Z,17.44
2022-10-05T20:56:21.154Z,17.48
2022-10-05T21:02:41.169Z,17.61
2022-10-05T21:09:04.181Z,17.67
2022-10-05T21:15:24.181Z,17.72
2022-10-05T21:21:47.183Z,17.72
2022-10-05T21:28:07.240Z,17.71
2022-10-05T21:34:30.154Z,17.72
2022-10-05T21:40:50.195Z,17.71
2022-10-05T21:47:13.149Z,17.7
2022-10-05T21:53:33.172Z,17.68
2022-10-05T21:59:56.186Z,17.65
2022-10-05T22:22:53.164Z,17.5
2022-10-05T22:29:13.176Z,17.5
2022-10-05T22:35:36.171Z,17.52
2022-10-05T22:41:56.331Z,17.57
2022-10-05T22:48:19.197Z,17.61
2022-10-05T22:54:39.140Z,17.71
2022-10-05T23:01:02.338Z,17.56
2022-10-05T23:07:22.234Z,17.11
2022-10-05T23:13:45.253Z,16.67
2022-10-05T23:20:05.171Z,16.34
2022-10-05T23:26:28.151Z,16.13
2022-10-05T23:32:48.236Z,16.02
2022-10-05T23:39:11.214Z,15.97
2022-10-05T23:45:31.191Z,15.95
2022-10-05T23:51:54.148Z,15.94
2022-10-05T23:58:14.241Z,15.93
